Time;durP1;ratioP1;P1;durP2;ratioP2;P2;SDS_P1;SDS_P2;PMS_P1;PMS_P2;Temp;Humidity;BMP_temperature;BMP_pressure;BME280_temperature;BME280_humidity;BME280_pressure;Samples;Min_cycle;Max_cycle;Signal;HPM_P1;HPM_P2
2021/07/13 00:00:25;;;;;;;;;;;26.00;53.30;;;;;;5078470;28;19985;-61
2021/07/13 00:02:50;;;;;;;;;;;26.00;53.30;;;;;;5084882;28;20271;-61
2021/07/13 00:05:17;;;;;;;;;;;26.00;53.30;;;;;;5087440;28;19912;-62
2021/07/13 00:07:44;;;;;;;;;;;26.00;53.30;;;;;;5096836;28;19916;-62
2021/07/13 00:10:10;;;;;;;;;;;26.10;53.40;;;;;;5092097;28;20344;-63
2021/07/13 00:12:37;;;;;;;;;;;26.00;53.30;;;;;;5098060;28;19911;-62
2021/07/13 00:15:06;;;;;;;;;;;26.00;53.30;;;;;;5091845;28;20002;-61
2021/07/13 00:17:32;;;;;;;;;;;26.00;53.30;;;;;;5096240;28;19918;-62
2021/07/13 00:19:57;;;;;;;;;;;26.00;53.30;;;;;;5105774;28;19911;-61
2021/07/13 00:22:22;;;;;;;;;;;26.00;53.30;;;;;;5086407;28;20451;-62
2021/07/13 00:24:48;;;;;;;;;;;26.00;53.30;;;;;;5090151;28;19999;-62
2021/07/13 00:27:13;;;;;;;;;;;26.00;53.30;;;;;;5084770;28;19916;-63
2021/07/13 00:29:39;;;;;;;;;;;26.00;53.30;;;;;;5088021;28;19969;-60
2021/07/13 00:32:05;;;;;;;;;;;26.00;53.40;;;;;;5092986;28;19912;-60
2021/07/13 00:34:30;;;;;;;;;;;26.00;53.30;;;;;;5094911;28;19908;-61
2021/07/13 00:36:56;;;;;;;;;;;26.00;53.30;;;;;;5087193;28;19920;-61
2021/07/13 00:39:21;;;;;;;;;;;26.00;53.30;;;;;;5087503;28;20354;-61
2021/07/13 00:41:46;;;;;;;;;;;26.00;53.30;;;;;;5085447;28;19912;-60
2021/07/13 00:44:12;;;;;;;;;;;26.00;53.30;;;;;;5077601;28;20382;-60
2021/07/13 00:46:38;;;;;;;;;;;26.00;53.40;;;;;;5080197;28;20364;-63
2021/07/13 00:49:04;;;;;;;;;;;25.90;53.30;;;;;;5085655;28;19931;-60
2021/07/13 00:51:30;;;;;;;;;;;26.00;53.40;;;;;;5097123;28;20038;-61
2021/07/13 00:53:56;;;;;;;;;;;25.90;53.30;;;;;;5093994;28;19912;-59
2021/07/13 00:56:21;;;;;;;;;;;26.00;53.40;;;;;;5095392;28;19927;-61
2021/07/13 00:58:47;;;;;;;;;;;26.00;53.40;;;;;;5085582;28;19934;-61
2021/07/13 01:01:12;;;;;;;;;;;25.90;53.30;;;;;;5069232;28;19916;-62
2021/07/13 01:03:38;;;;;;;;;;;25.90;53.30;;;;;;5087467;28;20452;-62
2021/07/13 01:06:04;;;;;;;;;;;25.90;53.30;;;;;;5086401;28;19918;-62
2021/07/13 01:08:53;;;;;;;;;;;25.90;53.30;;;;;;5091948;28;19919;-62
2021/07/13 01:11:22;;;;;;;;;;;25.90;53.30;;;;;;5093517;28;20006;-62
2021/07/13 01:13:47;;;;;;;;;;;25.90;53.40;;;;;;5093985;28;19927;-61
2021/07/13 01:16:15;;;;;;;;;;;25.90;53.30;;;;;;5093759;28;19912;-60
2021/07/13 01:18:51;;;;;;;;;;;25.90;53.30;;;;;;5092699;28;20018;-62
2021/07/13 01:21:23;;;;;;;;;;;25.90;53.30;;;;;;5092446;28;20174;-61
2021/07/13 01:23:51;;;;;;;;;;;25.90;53.30;;;;;;5092379;28;20034;-62
2021/07/13 01:26:36;;;;;;;;;;;25.90;53.30;;;;;;5092761;28;19919;-61
2021/07/13 01:29:04;;;;;;;;;;;25.90;53.30;;;;;;5091219;28;19912;-62
2021/07/13 01:31:29;;;;;;;;;;;25.90;53.30;;;;;;5092880;28;20326;-60
2021/07/13 01:34:03;;;;;;;;;;;25.90;53.30;;;;;;5094304;28;19908;-60
2021/07/13 01:36:36;;;;;;;;;;;25.90;53.30;;;;;;5092931;28;19923;-62
2021/07/13 01:39:03;;;;;;;;;;;25.90;53.30;;;;;;5091989;28;19923;-61
2021/07/13 01:41:30;;;;;;;;;;;25.90;53.40;;;;;;5093881;28;20658;-61
2021/07/13 01:43:56;;;;;;;;;;;25.80;53.30;;;;;;5093652;28;20004;-61
2021/07/13 01:46:22;;;;;;;;;;;25.90;53.40;;;;;;5093128;28;20007;-62
2021/07/13 01:48:48;;;;;;;;;;;25.90;53.30;;;;;;5095542;28;19911;-61
2021/07/13 01:51:15;;;;;;;;;;;25.90;53.30;;;;;;5096995;28;19998;-61
2021/07/13 01:53:40;;;;;;;;;;;25.80;53.20;;;;;;5092988;28;19990;-61
2021/07/13 01:56:07;;;;;;;;;;;25.80;53.30;;;;;;5091794;28;20426;-62
2021/07/13 01:58:34;;;;;;;;;;;25.80;53.20;;;;;;5091794;28;19931;-61
2021/07/13 02:01:04;;;;;;;;;;;25.80;53.30;;;;;;5092463;28;19965;-62
2021/07/13 02:03:30;;;;;;;;;;;25.80;53.30;;;;;;5074561;28;19915;-62
2021/07/13 02:05:56;;;;;;;;;;;25.80;53.30;;;;;;5087727;28;19942;-62
2021/07/13 02:08:22;;;;;;;;;;;25.80;53.30;;;;;;5091200;28;20004;-62
2021/07/13 02:10:48;;;;;;;;;;;25.80;53.30;;;;;;5093255;28;20283;-61
2021/07/13 02:13:18;;;;;;;;;;;25.80;53.30;;;;;;5093783;28;19922;-61
2021/07/13 02:15:43;;;;;;;;;;;25.80;53.30;;;;;;5091020;28;19912;-62
2021/07/13 02:18:09;;;;;;;;;;;25.80;53.30;;;;;;5087215;28;19912;-61
2021/07/13 02:20:35;;;;;;;;;;;25.80;53.30;;;;;;5088774;28;19942;-61
2021/07/13 02:23:00;;;;;;;;;;;25.80;53.30;;;;;;5086757;28;19934;-62
2021/07/13 02:25:26;;;;;;;;;;;25.80;53.30;;;;;;5088142;28;19972;-62
2021/07/13 02:28:03;;;;;;;;;;;25.80;53.30;;;;;;5089347;28;19923;-61
2021/07/13 02:30:29;;;;;;;;;;;25.80;53.30;;;;;;5088564;28;20247;-61
2021/07/13 02:33:03;;;;;;;;;;;25.80;53.30;;;;;;5089723;28;19998;-61
2021/07/13 02:35:33;;;;;;;;;;;25.80;53.30;;;;;;5088709;28;20004;-61
2021/07/13 02:37:59;;;;;;;;;;;25.80;53.30;;;;;;5087117;28;19911;-62
2021/07/13 02:40:25;;;;;;;;;;;25.80;53.30;;;;;;5088599;28;19915;-61
2021/07/13 02:42:50;;;;;;;;;;;25.70;53.30;;;;;;5088565;28;19912;-61
2021/07/13 02:45:16;;;;;;;;;;;25.70;53.30;;;;;;5086160;28;19908;-61
2021/07/13 02:47:43;;;;;;;;;;;25.70;53.30;;;;;;5089121;28;19919;-62
2021/07/13 02:50:09;;;;;;;;;;;25.70;53.30;;;;;;5089270;28;19919;-61
2021/07/13 02:52:35;;;;;;;;;;;25.70;53.30;;;;;;5088868;28;20654;-61
2021/07/13 02:55:06;;;;;;;;;;;25.70;53.80;;;;;;5087244;28;19908;-61
2021/07/13 02:57:33;;;;;;;;;;;25.70;53.30;;;;;;5086209;28;19919;-61
2021/07/13 02:59:59;;;;;;;;;;;25.70;53.30;;;;;;5077940;28;19919;-60
2021/07/13 03:02:25;;;;;;;;;;;25.70;53.30;;;;;;5088753;28;19923;-62
2021/07/13 03:04:50;;;;;;;;;;;25.70;53.30;;;;;;5088816;28;19955;-61
2021/07/13 03:07:18;;;;;;;;;;;25.70;53.30;;;;;;5085784;28;19977;-61
2021/07/13 03:09:43;;;;;;;;;;;25.70;53.30;;;;;;5072086;28;19908;-62
2021/07/13 03:12:09;;;;;;;;;;;25.70;53.40;;;;;;5086971;28;20630;-61
2021/07/13 03:14:37;;;;;;;;;;;25.70;53.40;;;;;;5089468;28;20597;-61
2021/07/13 03:17:02;;;;;;;;;;;25.70;53.30;;;;;;5087591;28;20371;-61
2021/07/13 03:19:28;;;;;;;;;;;25.70;53.30;;;;;;5087374;28;19915;-62
2021/07/13 03:21:54;;;;;;;;;;;25.70;53.40;;;;;;5088480;28;20010;-62
2021/07/13 03:24:20;;;;;;;;;;;25.70;53.40;;;;;;5087676;28;19916;-61
2021/07/13 03:26:46;;;;;;;;;;;25.70;53.40;;;;;;5087174;28;19973;-62
2021/07/13 03:29:12;;;;;;;;;;;25.70;53.40;;;;;;5087239;28;19973;-62
2021/07/13 03:31:38;;;;;;;;;;;25.70;53.40;;;;;;5085543;28;20348;-61
2021/07/13 03:34:06;;;;;;;;;;;25.70;53.40;;;;;;5089240;28;19922;-61
2021/07/13 03:36:32;;;;;;;;;;;25.70;53.40;;;;;;5085942;28;19954;-62
2021/07/13 03:38:58;;;;;;;;;;;25.70;53.40;;;;;;5087052;28;19966;-62
2021/07/13 03:41:24;;;;;;;;;;;25.70;53.40;;;;;;5088278;28;19931;-61
2021/07/13 03:43:50;;;;;;;;;;;25.60;53.30;;;;;;5087425;28;19932;-62
2021/07/13 03:46:15;;;;;;;;;;;25.70;53.40;;;;;;5088141;28;20400;-61
2021/07/13 03:48:41;;;;;;;;;;;25.70;53.40;;;;;;5088445;28;19908;-62
2021/07/13 03:51:08;;;;;;;;;;;25.60;53.30;;;;;;5086430;28;19982;-62
2021/07/13 03:53:33;;;;;;;;;;;25.60;53.30;;;;;;5087575;28;19918;-61
2021/07/13 03:55:59;;;;;;;;;;;25.60;53.30;;;;;;5073444;28;20275;-61
2021/07/13 03:58:24;;;;;;;;;;;25.60;53.30;;;;;;5081386;28;19912;-61
2021/07/13 04:00:50;;;;;;;;;;;25.60;53.30;;;;;;5082987;28;19943;-61
2021/07/13 04:03:15;;;;;;;;;;;25.60;53.30;;;;;;5076498;28;19923;-62
2021/07/13 04:05:41;;;;;;;;;;;25.60;53.40;;;;;;5081317;28;20363;-62
2021/07/13 04:08:07;;;;;;;;;;;25.60;53.30;;;;;;5086242;28;19912;-61
2021/07/13 04:10:32;;;;;;;;;;;25.60;53.40;;;;;;5087816;28;19908;-61
2021/07/13 04:12:58;;;;;;;;;;;25.60;53.30;;;;;;5086622;28;19999;-61
2021/07/13 04:15:23;;;;;;;;;;;25.60;53.40;;;;;;5082391;28;19935;-62
2021/07/13 04:17:49;;;;;;;;;;;25.60;53.30;;;;;;5086289;28;19918;-62
2021/07/13 04:20:14;;;;;;;;;;;25.60;53.40;;;;;;5079036;28;19912;-61
2021/07/13 04:22:42;;;;;;;;;;;25.60;53.40;;;;;;5081838;28;19908;-61
2021/07/13 04:25:08;;;;;;;;;;;25.60;53.40;;;;;;5072522;28;20011;-62
2021/07/13 04:27:33;;;;;;;;;;;25.60;53.40;;;;;;5078915;28;20015;-61
2021/07/13 04:29:59;;;;;;;;;;;25.60;53.40;;;;;;5082672;28;20829;-61
2021/07/13 04:32:25;;;;;;;;;;;25.60;53.40;;;;;;5076899;28;20286;-62
2021/07/13 04:34:50;;;;;;;;;;;25.60;53.40;;;;;;5084998;28;19926;-62
2021/07/13 04:37:16;;;;;;;;;;;25.60;53.40;;;;;;5085140;28;19912;-61
2021/07/13 04:39:41;;;;;;;;;;;25.50;53.30;;;;;;5086617;28;20019;-61
2021/07/13 04:42:07;;;;;;;;;;;25.50;53.40;;;;;;5082728;28;19923;-62
2021/07/13 04:44:32;;;;;;;;;;;25.50;53.30;;;;;;5066847;28;19915;-62
2021/07/13 04:46:58;;;;;;;;;;;25.50;53.40;;;;;;5085832;28;19908;-62
2021/07/13 04:49:25;;;;;;;;;;;25.50;53.40;;;;;;5085681;28;19908;-61
2021/07/13 04:51:51;;;;;;;;;;;25.50;53.30;;;;;;5085163;28;20362;-61
2021/07/13 04:54:16;;;;;;;;;;;25.50;53.40;;;;;;5086185;28;19915;-61
2021/07/13 04:56:42;;;;;;;;;;;25.50;53.40;;;;;;5084553;28;20014;-61
2021/07/13 04:59:08;;;;;;;;;;;25.50;53.40;;;;;;5085923;28;19938;-61
2021/07/13 05:01:33;;;;;;;;;;;25.50;53.40;;;;;;5084816;28;19916;-61
2021/07/13 05:03:59;;;;;;;;;;;25.50;54.20;;;;;;5085933;28;19953;-61
2021/07/13 05:06:24;;;;;;;;;;;25.40;54.80;;;;;;5084269;28;20274;-61
2021/07/13 05:08:50;;;;;;;;;;;25.30;55.20;;;;;;5085563;28;19916;-62
2021/07/13 05:11:15;;;;;;;;;;;25.30;55.40;;;;;;5084633;28;19916;-61
2021/07/13 05:13:41;;;;;;;;;;;25.20;55.50;;;;;;5086018;28;19919;-61
2021/07/13 05:16:06;;;;;;;;;;;25.10;55.80;;;;;;5084797;28;20014;-61
2021/07/13 05:18:34;;;;;;;;;;;25.10;56.60;;;;;;5082713;28;19912;-60
2021/07/13 05:21:03;;;;;;;;;;;25.10;56.20;;;;;;5084262;28;19908;-60
2021/07/13 05:23:28;;;;;;;;;;;25.00;56.70;;;;;;5081152;28;19920;-61
2021/07/13 05:25:54;;;;;;;;;;;24.90;56.80;;;;;;5086572;28;20330;-61
2021/07/13 05:28:19;;;;;;;;;;;24.90;57.00;;;;;;5086172;28;19912;-61
2021/07/13 05:30:46;;;;;;;;;;;24.90;57.20;;;;;;5084433;28;19912;-61
2021/07/13 05:33:12;;;;;;;;;;;24.80;58.10;;;;;;5084204;28;19908;-61
2021/07/13 05:35:38;;;;;;;;;;;24.80;57.40;;;;;;5093384;28;19927;-62
2021/07/13 05:38:04;;;;;;;;;;;24.80;57.40;;;;;;5085641;28;20685;-61
2021/07/13 05:40:29;;;;;;;;;;;24.80;57.40;;;;;;5089122;28;19911;-60
2021/07/13 05:42:55;;;;;;;;;;;24.80;57.60;;;;;;5085181;28;20296;-60
2021/07/13 05:45:20;;;;;;;;;;;24.80;57.80;;;;;;5086927;28;20269;-61
2021/07/13 05:47:46;;;;;;;;;;;24.80;58.10;;;;;;5085574;28;20052;-60
2021/07/13 05:50:11;;;;;;;;;;;24.80;57.80;;;;;;5087036;28;19977;-60
2021/07/13 05:52:37;;;;;;;;;;;24.80;58.20;;;;;;5086101;28;19936;-60
2021/07/13 05:55:03;;;;;;;;;;;24.80;57.90;;;;;;5096058;28;19919;-61
2021/07/13 05:57:29;;;;;;;;;;;24.80;57.40;;;;;;5088885;28;20086;-61
2021/07/13 05:59:54;;;;;;;;;;;24.90;57.70;;;;;;5068711;28;20029;-60
2021/07/13 06:02:20;;;;;;;;;;;24.90;57.40;;;;;;5068715;28;19956;-60
2021/07/13 06:04:45;;;;;;;;;;;24.90;57.30;;;;;;5070215;28;20011;-60
2021/07/13 06:07:11;;;;;;;;;;;25.00;57.40;;;;;;5069134;28;19916;-60
2021/07/13 06:09:36;;;;;;;;;;;25.00;57.20;;;;;;5069002;28;20079;-60
2021/07/13 06:12:02;;;;;;;;;;;25.00;57.30;;;;;;5068161;28;19923;-62
2021/07/13 06:14:28;;;;;;;;;;;25.00;57.40;;;;;;5082704;28;19949;-62
2021/07/13 06:16:53;;;;;;;;;;;25.00;57.60;;;;;;5068598;28;19909;-60
2021/07/13 06:19:19;;;;;;;;;;;25.00;57.90;;;;;;5070087;28;20090;-61
2021/07/13 06:21:44;;;;;;;;;;;25.00;58.10;;;;;;5073475;28;19908;-60
2021/07/13 06:24:10;;;;;;;;;;;25.00;58.10;;;;;;5068009;28;19939;-60
2021/07/13 06:26:36;;;;;;;;;;;25.00;57.90;;;;;;5068888;28;19958;-60
2021/07/13 06:29:01;;;;;;;;;;;25.00;57.90;;;;;;5075938;28;19908;-62
2021/07/13 06:31:27;;;;;;;;;;;25.00;57.90;;;;;;5064217;28;20110;-60
2021/07/13 06:33:52;;;;;;;;;;;25.00;57.50;;;;;;5066869;28;19912;-62
2021/07/13 06:36:18;;;;;;;;;;;25.10;57.30;;;;;;5041962;28;19983;-60
2021/07/13 06:38:44;;;;;;;;;;;25.10;57.00;;;;;;5063173;28;19939;-60
2021/07/13 06:41:09;;;;;;;;;;;25.10;56.70;;;;;;5069642;28;19908;-60
2021/07/13 06:43:35;;;;;;;;;;;25.20;56.60;;;;;;5063360;28;19971;-60
2021/07/13 06:46:00;;;;;;;;;;;25.20;56.40;;;;;;5067191;28;19920;-60
2021/07/13 06:48:26;;;;;;;;;;;25.30;56.30;;;;;;5066240;28;20003;-59
2021/07/13 06:50:52;;;;;;;;;;;25.30;56.20;;;;;;5068679;28;19986;-61
2021/07/13 06:53:18;;;;;;;;;;;25.40;56.10;;;;;;5069166;28;19981;-60
2021/07/13 06:55:44;;;;;;;;;;;25.40;56.00;;;;;;5073254;28;20343;-60
2021/07/13 06:58:10;;;;;;;;;;;25.40;55.90;;;;;;5068542;28;20002;-60
2021/07/13 07:00:35;;;;;;;;;;;25.40;55.70;;;;;;5066791;28;20295;-59
2021/07/13 07:03:01;;;;;;;;;;;25.40;55.60;;;;;;5072794;28;19977;-60
2021/07/13 07:05:26;;;;;;;;;;;25.50;55.60;;;;;;5051519;28;19922;-61
2021/07/13 07:07:52;;;;;;;;;;;25.50;55.50;;;;;;5071719;28;20338;-62
2021/07/13 07:10:19;;;;;;;;;;;25.50;55.40;;;;;;5068820;28;19934;-61
2021/07/13 07:12:44;;;;;;;;;;;25.50;55.30;;;;;;5067163;28;19970;-61
2021/07/13 07:15:10;;;;;;;;;;;25.60;55.30;;;;;;5060463;28;19912;-60
2021/07/13 07:17:49;;;;;;;;;;;25.60;55.20;;;;;;5058932;28;19908;-60
2021/07/13 07:20:15;;;;;;;;;;;25.60;55.10;;;;;;5077045;28;19930;-61
2021/07/13 07:22:41;;;;;;;;;;;25.60;55.00;;;;;;5064758;28;20277;-60
2021/07/13 07:25:07;;;;;;;;;;;25.70;55.00;;;;;;5048904;28;20106;-60
2021/07/13 07:27:32;;;;;;;;;;;25.70;54.90;;;;;;5061695;28;20003;-61
2021/07/13 07:29:58;;;;;;;;;;;25.70;54.80;;;;;;5058615;28;19928;-60
2021/07/13 07:32:24;;;;;;;;;;;25.70;54.70;;;;;;5067724;28;19912;-60
2021/07/13 07:34:49;;;;;;;;;;;25.70;54.60;;;;;;5068156;28;19916;-60
2021/07/13 07:37:15;;;;;;;;;;;25.80;54.60;;;;;;5067220;28;19918;-61
2021/07/13 07:39:41;;;;;;;;;;;25.70;54.50;;;;;;5074478;28;19931;-60
2021/07/13 07:42:07;;;;;;;;;;;25.80;54.50;;;;;;5075257;28;19936;-62
2021/07/13 07:44:32;;;;;;;;;;;25.80;54.60;;;;;;5067933;28;20382;-60
2021/07/13 07:46:58;;;;;;;;;;;25.80;54.40;;;;;;5066270;28;20322;-61
2021/07/13 07:49:23;;;;;;;;;;;25.80;54.40;;;;;;5068482;28;19905;-60
2021/07/13 07:51:49;;;;;;;;;;;25.80;54.30;;;;;;5071269;28;19916;-60
2021/07/13 07:54:15;;;;;;;;;;;25.80;54.30;;;;;;5070302;28;20351;-60
2021/07/13 07:56:40;;;;;;;;;;;25.80;54.30;;;;;;5075835;28;19920;-61
2021/07/13 07:59:06;;;;;;;;;;;25.90;54.40;;;;;;5068073;28;19978;-61
2021/07/13 08:01:31;;;;;;;;;;;25.90;54.40;;;;;;5065845;28;19913;-60
2021/07/13 08:03:57;;;;;;;;;;;25.80;54.20;;;;;;5067239;28;20010;-61
2021/07/13 08:06:22;;;;;;;;;;;25.90;54.30;;;;;;5066016;28;19943;-60
2021/07/13 08:08:48;;;;;;;;;;;25.90;54.20;;;;;;5065363;28;20506;-61
2021/07/13 08:11:13;;;;;;;;;;;25.90;54.20;;;;;;5067143;28;19927;-61
2021/07/13 08:13:39;;;;;;;;;;;25.90;54.10;;;;;;5067570;28;19947;-60
2021/07/13 08:16:04;;;;;;;;;;;26.00;54.10;;;;;;5065850;28;19943;-62
2021/07/13 08:18:30;;;;;;;;;;;25.90;54.00;;;;;;5060285;28;20289;-60
2021/07/13 08:20:55;;;;;;;;;;;26.00;54.10;;;;;;5066547;28;19913;-60
2021/07/13 08:23:21;;;;;;;;;;;26.00;54.00;;;;;;5066589;28;19913;-60
2021/07/13 08:25:46;;;;;;;;;;;26.00;54.00;;;;;;5066755;28;20267;-60
2021/07/13 08:28:12;;;;;;;;;;;26.00;54.00;;;;;;5066003;28;19951;-60
2021/07/13 08:30:38;;;;;;;;;;;26.00;54.00;;;;;;5072752;28;19942;-62
2021/07/13 08:33:03;;;;;;;;;;;26.00;54.00;;;;;;5089547;28;19977;-60
2021/07/13 08:35:29;;;;;;;;;;;26.00;53.90;;;;;;5088653;28;20006;-59
2021/07/13 08:37:54;;;;;;;;;;;26.00;54.00;;;;;;5085886;28;20310;-60
2021/07/13 08:40:20;;;;;;;;;;;26.00;54.00;;;;;;5068016;28;19908;-60
2021/07/13 08:42:46;;;;;;;;;;;26.00;54.00;;;;;;5084190;28;19968;-60
2021/07/13 08:45:15;;;;;;;;;;;26.10;54.00;;;;;;5079406;28;20677;-60
2021/07/13 08:47:41;;;;;;;;;;;26.10;54.00;;;;;;5082549;28;20566;-60
2021/07/13 08:50:08;;;;;;;;;;;26.10;54.10;;;;;;5086046;28;20350;-59
2021/07/13 08:52:34;;;;;;;;;;;26.10;54.00;;;;;;5082497;28;19926;-59
2021/07/13 08:55:00;;;;;;;;;;;26.10;53.90;;;;;;5093139;28;19908;-60
2021/07/13 08:57:25;;;;;;;;;;;26.10;53.80;;;;;;5083349;28;19916;-62
2021/07/13 08:59:51;;;;;;;;;;;26.10;53.90;;;;;;5081395;28;19919;-59
2021/07/13 09:02:16;;;;;;;;;;;26.20;53.90;;;;;;5083750;28;20311;-59
2021/07/13 09:04:42;;;;;;;;;;;26.20;53.80;;;;;;5083990;28;19919;-60
2021/07/13 09:07:09;;;;;;;;;;;26.20;53.80;;;;;;5086273;28;20437;-61
2021/07/13 09:09:36;;;;;;;;;;;26.20;53.70;;;;;;5079853;28;19908;-59
2021/07/13 09:12:11;;;;;;;;;;;26.20;53.80;;;;;;5091856;28;20006;-62
2021/07/13 09:14:46;;;;;;;;;;;26.20;53.90;;;;;;5071322;28;19926;-60
2021/07/13 09:17:24;;;;;;;;;;;26.30;53.80;;;;;;5083977;28;19912;-60
2021/07/13 09:20:21;;;;;;;;;;;26.30;53.70;;;;;;5082420;28;20020;-61
2021/07/13 09:22:54;;;;;;;;;;;26.30;53.70;;;;;;5083930;28;19911;-61
2021/07/13 09:25:25;;;;;;;;;;;26.30;53.70;;;;;;5088783;28;19912;-61
2021/07/13 09:28:04;;;;;;;;;;;26.40;53.70;;;;;;5062103;28;19923;-61
2021/07/13 09:30:30;;;;;;;;;;;26.40;53.60;;;;;;5083988;28;19957;-60
2021/07/13 09:33:10;;;;;;;;;;;26.40;53.70;;;;;;5100061;28;19964;-60
2021/07/13 09:35:36;;;;;;;;;;;26.40;53.70;;;;;;5090390;28;19999;-60
2021/07/13 09:38:02;;;;;;;;;;;26.40;53.70;;;;;;5094815;28;19908;-60
2021/07/13 09:40:27;;;;;;;;;;;26.40;53.70;;;;;;5092117;28;20129;-62
2021/07/13 09:42:53;;;;;;;;;;;26.40;53.60;;;;;;5089840;28;20002;-59
2021/07/13 09:45:31;;;;;;;;;;;26.50;53.60;;;;;;5089289;28;19911;-61
2021/07/13 09:47:58;;;;;;;;;;;26.50;53.50;;;;;;5089370;28;19912;-58
2021/07/13 09:50:30;;;;;;;;;;;26.40;53.40;;;;;;5087857;28;19995;-60
2021/07/13 09:52:56;;;;;;;;;;;26.50;53.50;;;;;;5092853;28;19922;-62
2021/07/13 09:55:24;;;;;;;;;;;26.50;53.40;;;;;;5091026;28;19919;-60
2021/07/13 09:57:50;;;;;;;;;;;26.50;53.40;;;;;;5095263;28;19908;-60
2021/07/13 10:00:15;;;;;;;;;;;26.50;53.40;;;;;;5089075;28;19923;-62
2021/07/13 10:02:41;;;;;;;;;;;26.50;53.30;;;;;;5061591;28;19912;-61
2021/07/13 10:05:07;;;;;;;;;;;26.60;53.50;;;;;;5069002;28;20291;-61
2021/07/13 10:07:33;;;;;;;;;;;26.60;53.40;;;;;;5090680;28;19908;-60
2021/07/13 10:10:03;;;;;;;;;;;26.60;53.30;;;;;;5099008;28;19916;-61
2021/07/13 10:12:29;;;;;;;;;;;26.60;53.30;;;;;;5090259;28;19912;-59
2021/07/13 10:14:58;;;;;;;;;;;26.60;53.20;;;;;;5090744;28;19912;-58
2021/07/13 10:17:25;;;;;;;;;;;26.60;53.30;;;;;;5077711;28;20361;-59
2021/07/13 10:19:54;;;;;;;;;;;26.60;53.40;;;;;;5086327;28;19912;-58
2021/07/13 10:22:22;;;;;;;;;;;26.70;53.30;;;;;;5099917;28;19916;-56
2021/07/13 10:24:53;;;;;;;;;;;26.70;53.40;;;;;;5086852;28;19916;-58
2021/07/13 10:27:32;;;;;;;;;;;26.70;53.40;;;;;;5086594;28;19923;-60
2021/07/13 10:29:59;;;;;;;;;;;26.70;53.20;;;;;;5087805;28;19907;-56
2021/07/13 10:32:25;;;;;;;;;;;26.70;53.50;;;;;;5085452;28;20707;-58
2021/07/13 10:34:50;;;;;;;;;;;26.70;53.90;;;;;;5085868;28;19908;-59
2021/07/13 10:37:23;;;;;;;;;;;26.70;53.50;;;;;;5080295;28;19916;-59
2021/07/13 10:39:48;;;;;;;;;;;26.70;53.40;;;;;;5087367;28;20030;-59
2021/07/13 10:42:32;;;;;;;;;;;26.70;53.20;;;;;;5082832;28;20083;-60
2021/07/13 10:45:10;;;;;;;;;;;26.70;53.20;;;;;;5087727;28;19967;-60
2021/07/13 10:47:35;;;;;;;;;;;26.70;53.20;;;;;;5086578;28;20435;-59
2021/07/13 10:50:16;;;;;;;;;;;26.80;53.00;;;;;;5091434;28;19908;-59
2021/07/13 10:53:00;;;;;;;;;;;26.70;53.10;;;;;;5086423;28;20286;-59
2021/07/13 10:55:32;;;;;;;;;;;26.80;53.20;;;;;;5094461;28;20282;-59
2021/07/13 10:58:10;;;;;;;;;;;26.80;53.10;;;;;;5084892;28;20319;-60
2021/07/13 11:00:50;;;;;;;;;;;26.80;52.80;;;;;;5093558;28;19922;-59
2021/07/13 11:03:30;;;;;;;;;;;26.80;53.00;;;;;;5083833;28;20022;-60
2021/07/13 11:05:57;;;;;;;;;;;26.80;52.70;;;;;;5082991;28;19951;-59
2021/07/13 11:11:05;;;;;;;;;;;26.90;52.90;;;;;;5079184;28;20437;-62
2021/07/13 11:13:31;;;;;;;;;;;26.80;52.60;;;;;;5078690;28;19999;-61
2021/07/13 11:15:57;;;;;;;;;;;26.90;52.50;;;;;;5084495;28;19915;-59
2021/07/13 11:18:26;;;;;;;;;;;26.90;52.80;;;;;;5084554;28;19914;-59
2021/07/13 11:20:51;;;;;;;;;;;26.90;52.80;;;;;;5086360;28;19920;-58
2021/07/13 11:23:29;;;;;;;;;;;26.90;52.70;;;;;;5083119;28;19919;-61
2021/07/13 11:26:04;;;;;;;;;;;26.90;52.60;;;;;;5082851;28;19922;-59
2021/07/13 11:28:31;;;;;;;;;;;26.90;52.50;;;;;;5081680;28;19912;-60
2021/07/13 11:30:57;;;;;;;;;;;26.90;52.50;;;;;;5082548;28;19931;-60
2021/07/13 11:33:27;;;;;;;;;;;26.90;52.50;;;;;;5085089;28;20682;-61
2021/07/13 11:35:54;;;;;;;;;;;27.00;52.70;;;;;;5066019;28;20003;-60
2021/07/13 11:38:26;;;;;;;;;;;27.00;52.60;;;;;;5081832;28;20564;-60
2021/07/13 11:41:07;;;;;;;;;;;26.90;52.30;;;;;;5081043;28;20265;-60
2021/07/13 11:43:33;;;;;;;;;;;27.00;52.40;;;;;;5075092;28;20460;-59
2021/07/13 11:46:11;;;;;;;;;;;27.00;52.60;;;;;;5081768;28;20026;-61
2021/07/13 11:48:37;;;;;;;;;;;27.00;52.80;;;;;;5080689;28;19919;-60
2021/07/13 11:51:03;;;;;;;;;;;27.00;52.80;;;;;;5095215;28;19912;-60
2021/07/13 11:53:29;;;;;;;;;;;27.00;52.50;;;;;;5088904;28;19969;-60
2021/07/13 11:56:01;;;;;;;;;;;27.00;52.70;;;;;;5085964;28;19912;-60
2021/07/13 11:58:28;;;;;;;;;;;26.90;52.60;;;;;;5084161;28;19912;-60
2021/07/13 12:00:53;;;;;;;;;;;26.90;52.50;;;;;;5086313;28;19939;-61
2021/07/13 12:03:28;;;;;;;;;;;26.90;52.40;;;;;;5086172;28;19946;-60
2021/07/13 12:06:14;;;;;;;;;;;26.90;52.30;;;;;;5086342;28;19912;-61
2021/07/13 12:08:40;;;;;;;;;;;26.90;52.40;;;;;;5084846;28;19956;-61
2021/07/13 12:11:06;;;;;;;;;;;26.90;52.40;;;;;;5086589;28;19908;-61
2021/07/13 12:13:31;;;;;;;;;;;27.00;52.50;;;;;;5084163;28;20247;-60
2021/07/13 12:16:29;;;;;;;;;;;26.90;52.50;;;;;;5085676;28;19904;-60
2021/07/13 12:18:56;;;;;;;;;;;26.90;52.50;;;;;;5029278;28;19985;-58
2021/07/13 12:21:22;;;;;;;;;;;26.90;52.50;;;;;;5093388;28;21438;-60
2021/07/13 12:23:49;;;;;;;;;;;26.90;52.40;;;;;;5084627;28;19915;-61
2021/07/13 12:26:31;;;;;;;;;;;26.90;52.60;;;;;;5085824;28;19915;-61
2021/07/13 12:29:05;;;;;;;;;;;26.90;52.60;;;;;;5083856;28;19962;-61
2021/07/13 12:31:31;;;;;;;;;;;26.90;52.70;;;;;;5084780;28;19931;-61
2021/07/13 12:33:57;;;;;;;;;;;26.90;52.70;;;;;;5086714;28;19904;-60
2021/07/13 12:36:27;;;;;;;;;;;26.90;52.60;;;;;;5086523;28;19908;-61
2021/07/13 12:38:52;;;;;;;;;;;26.90;52.50;;;;;;5082794;28;19931;-60
2021/07/13 12:41:18;;;;;;;;;;;26.90;52.60;;;;;;5092625;28;19919;-61
2021/07/13 12:43:47;;;;;;;;;;;26.90;52.40;;;;;;5087367;28;20277;-60
2021/07/13 12:46:31;;;;;;;;;;;27.00;52.50;;;;;;5087346;28;20297;-60
2021/07/13 12:48:57;;;;;;;;;;;26.90;52.40;;;;;;5087086;28;20234;-60
2021/07/13 12:51:26;;;;;;;;;;;26.90;52.40;;;;;;5092376;28;20212;-60
2021/07/13 12:54:08;;;;;;;;;;;26.90;52.30;;;;;;5085166;28;19939;-60
2021/07/13 12:56:35;;;;;;;;;;;26.90;52.30;;;;;;5083714;28;19973;-61
2021/07/13 12:59:07;;;;;;;;;;;27.00;52.40;;;;;;5087278;28;20251;-60
2021/07/13 13:01:34;;;;;;;;;;;26.90;52.40;;;;;;5086019;28;19919;-61
2021/07/13 13:04:09;;;;;;;;;;;26.90;52.30;;;;;;5074282;28;19916;-61
2021/07/13 13:06:35;;;;;;;;;;;26.90;52.40;;;;;;5084934;28;19987;-61
2021/07/13 13:09:05;;;;;;;;;;;26.90;52.40;;;;;;5082220;28;20007;-60
2021/07/13 13:11:33;;;;;;;;;;;26.90;52.40;;;;;;5069199;28;20002;-60
2021/07/13 13:14:00;;;;;;;;;;;26.90;52.40;;;;;;5086723;28;19919;-60
2021/07/13 13:16:27;;;;;;;;;;;26.90;52.40;;;;;;5086407;28;20003;-60
2021/07/13 13:18:54;;;;;;;;;;;26.80;52.40;;;;;;5086101;28;19912;-60
2021/07/13 13:21:20;;;;;;;;;;;26.80;52.40;;;;;;5087884;28;20354;-60
2021/07/13 13:23:45;;;;;;;;;;;26.80;52.40;;;;;;5088032;28;19912;-59
2021/07/13 13:26:11;;;;;;;;;;;26.80;52.40;;;;;;5086652;28;20074;-61
2021/07/13 13:28:37;;;;;;;;;;;26.80;52.40;;;;;;5087407;28;19925;-60
2021/07/13 13:31:03;;;;;;;;;;;26.80;52.50;;;;;;5067205;28;20033;-60
2021/07/13 13:33:29;;;;;;;;;;;26.80;52.50;;;;;;5084888;28;20007;-60
2021/07/13 13:40:56;;;;;;;;;;;26.70;52.50;;;;;;5082748;28;19915;-60
2021/07/13 13:43:21;;;;;;;;;;;26.80;52.50;;;;;;5083828;28;19920;-60
2021/07/13 13:45:47;;;;;;;;;;;26.70;52.50;;;;;;5084381;28;19912;-60
2021/07/13 13:48:13;;;;;;;;;;;26.70;52.50;;;;;;5082458;28;20380;-60
2021/07/13 13:50:38;;;;;;;;;;;26.70;52.60;;;;;;5084010;28;19924;-61
2021/07/13 13:53:04;;;;;;;;;;;26.70;52.60;;;;;;5083432;28;19984;-60
2021/07/13 13:55:29;;;;;;;;;;;26.70;52.60;;;;;;5084427;28;19950;-60
2021/07/13 13:57:55;;;;;;;;;;;26.70;52.60;;;;;;5084402;28;19912;-61
2021/07/13 14:00:21;;;;;;;;;;;26.70;52.60;;;;;;5084564;28;20719;-61
2021/07/13 14:02:48;;;;;;;;;;;26.70;52.60;;;;;;5083994;28;19908;-60
2021/07/13 14:05:14;;;;;;;;;;;26.70;52.60;;;;;;5064984;28;19920;-62
2021/07/13 14:07:40;;;;;;;;;;;26.70;52.60;;;;;;5081857;28;19957;-61
2021/07/13 14:10:06;;;;;;;;;;;26.70;52.60;;;;;;5095187;28;19955;-61
2021/07/13 14:12:31;;;;;;;;;;;26.70;52.60;;;;;;5084340;28;19994;-61
2021/07/13 14:14:57;;;;;;;;;;;26.70;52.60;;;;;;5095327;28;19911;-61
2021/07/13 14:17:26;;;;;;;;;;;26.60;52.60;;;;;;5086333;28;19915;-61
2021/07/13 14:19:52;;;;;;;;;;;26.60;52.60;;;;;;5085859;28;19988;-61
2021/07/13 14:22:18;;;;;;;;;;;26.60;52.70;;;;;;5089401;28;19919;-61
2021/07/13 14:24:43;;;;;;;;;;;26.60;52.70;;;;;;5089395;28;20418;-61